sensor_id;sensor_type;location;lat;lon;timestamp;temperature;humidity
12408;DHT22;6268;48.188;17.134;2022-08-25T00:00:18;23.00;99.90
12408;DHT22;6268;48.188;17.134;2022-08-25T00:02:48;23.00;99.90
12408;DHT22;6268;48.188;17.134;2022-08-25T00:05:29;23.00;99.90
12408;DHT22;6268;48.188;17.134;2022-08-25T00:08:00;23.00;99.90
12408;DHT22;6268;48.188;17.134;2022-08-25T00:10:31;23.00;99.90
12408;DHT22;6268;48.188;17.134;2022-08-25T00:13:01;22.90;99.90
12408;DHT22;6268;48.188;17.134;2022-08-25T00:15:30;22.90;99.90
12408;DHT22;6268;48.188;17.134;2022-08-25T00:18:00;22.90;99.90
12408;DHT22;6268;48.188;17.134;2022-08-25T00:20:29;22.90;99.90
12408;DHT22;6268;48.188;17.134;2022-08-25T00:22:59;22.90;99.90
12408;DHT22;6268;48.188;17.134;2022-08-25T00:25:30;22.90;99.90
12408;DHT22;6268;48.188;17.134;2022-08-25T00:27:58;22.90;99.90
12408;DHT22;6268;48.188;17.134;2022-08-25T00:30:34;22.90;99.90
12408;DHT22;6268;48.188;17.134;2022-08-25T00:33:03;22.80;99.90
12408;DHT22;6268;48.188;17.134;2022-08-25T00:35:31;22.80;99.90
12408;DHT22;6268;48.188;17.134;2022-08-25T00:38:01;22.80;99.90
12408;DHT22;6268;48.188;17.134;2022-08-25T00:40:31;22.70;99.90
12408;DHT22;6268;48.188;17.134;2022-08-25T00:43:00;22.70;99.90
12408;DHT22;6268;48.188;17.134;2022-08-25T00:45:29;22.70;99.90
12408;DHT22;6268;48.188;17.134;2022-08-25T00:47:58;22.70;99.90
12408;DHT22;6268;48.188;17.134;2022-08-25T00:50:28;22.70;99.90
12408;DHT22;6268;48.188;17.134;2022-08-25T00:53:02;22.70;99.90
12408;DHT22;6268;48.188;17.134;2022-08-25T00:55:36;22.70;99.90
12408;DHT22;6268;48.188;17.134;2022-08-25T00:58:10;22.70;99.90
12408;DHT22;6268;48.188;17.134;2022-08-25T01:00:45;22.60;99.90
12408;DHT22;6268;48.188;17.134;2022-08-25T01:03:18;22.70;99.90
12408;DHT22;6268;48.188;17.134;2022-08-25T01:05:51;22.60;99.90
12408;DHT22;6268;48.188;17.134;2022-08-25T01:08:23;22.60;99.90
12408;DHT22;6268;48.188;17.134;2022-08-25T01:10:58;22.50;99.90
12408;DHT22;6268;48.188;17.134;2022-08-25T01:13:34;22.60;99.90
12408;DHT22;6268;48.188;17.134;2022-08-25T01:16:07;22.50;99.90
12408;DHT22;6268;48.188;17.134;2022-08-25T01:18:44;22.50;99.90
12408;DHT22;6268;48.188;17.134;2022-08-25T01:21:18;22.50;99.90
12408;DHT22;6268;48.188;17.134;2022-08-25T01:23:49;22.40;99.90
12408;DHT22;6268;48.188;17.134;2022-08-25T01:26:21;22.40;99.90
12408;DHT22;6268;48.188;17.134;2022-08-25T01:28:58;22.40;99.90
12408;DHT22;6268;48.188;17.134;2022-08-25T01:31:47;22.40;99.90
12408;DHT22;6268;48.188;17.134;2022-08-25T01:34:18;22.40;99.90
12408;DHT22;6268;48.188;17.134;2022-08-25T01:36:50;22.30;99.90
12408;DHT22;6268;48.188;17.134;2022-08-25T01:39:19;22.40;99.90
12408;DHT22;6268;48.188;17.134;2022-08-25T01:42:02;22.40;99.90
12408;DHT22;6268;48.188;17.134;2022-08-25T01:44:39;22.40;99.90
12408;DHT22;6268;48.188;17.134;2022-08-25T01:47:10;22.30;99.90
12408;DHT22;6268;48.188;17.134;2022-08-25T01:49:39;22.30;99.90
12408;DHT22;6268;48.188;17.134;2022-08-25T01:52:14;22.30;99.90
12408;DHT22;6268;48.188;17.134;2022-08-25T01:54:47;22.40;99.90
12408;DHT22;6268;48.188;17.134;2022-08-25T01:57:16;22.30;99.90
12408;DHT22;6268;48.188;17.134;2022-08-25T01:59:45;22.30;99.90
12408;DHT22;6268;48.188;17.134;2022-08-25T02:02:14;22.30;99.90
12408;DHT22;6268;48.188;17.134;2022-08-25T02:04:44;22.30;99.90
12408;DHT22;6268;48.188;17.134;2022-08-25T02:07:15;22.20;99.90
12408;DHT22;6268;48.188;17.134;2022-08-25T02:09:44;22.20;99.90
12408;DHT22;6268;48.188;17.134;2022-08-25T02:12:13;22.20;99.90
12408;DHT22;6268;48.188;17.134;2022-08-25T02:14:41;22.10;99.90
12408;DHT22;6268;48.188;17.134;2022-08-25T02:17:10;22.10;99.90
12408;DHT22;6268;48.188;17.134;2022-08-25T02:19:39;22.10;99.90
12408;DHT22;6268;48.188;17.134;2022-08-25T02:22:08;22.10;99.90
12408;DHT22;6268;48.188;17.134;2022-08-25T02:24:38;22.10;99.90
12408;DHT22;6268;48.188;17.134;2022-08-25T02:27:06;22.20;99.90
12408;DHT22;6268;48.188;17.134;2022-08-25T02:29:37;22.10;99.90
12408;DHT22;6268;48.188;17.134;2022-08-25T02:32:06;22.10;99.90
12408;DHT22;6268;48.188;17.134;2022-08-25T02:34:36;22.10;99.90
12408;DHT22;6268;48.188;17.134;2022-08-25T02:37:07;22.00;99.90
12408;DHT22;6268;48.188;17.134;2022-08-25T02:39:35;22.00;99.90
12408;DHT22;6268;48.188;17.134;2022-08-25T02:42:06;22.00;99.90
12408;DHT22;6268;48.188;17.134;2022-08-25T02:44:34;22.00;99.90
12408;DHT22;6268;48.188;17.134;2022-08-25T02:47:03;22.00;99.90
12408;DHT22;6268;48.188;17.134;2022-08-25T02:49:32;21.90;99.90
12408;DHT22;6268;48.188;17.134;2022-08-25T02:52:01;21.90;99.90
12408;DHT22;6268;48.188;17.134;2022-08-25T02:54:31;22.00;99.90
12408;DHT22;6268;48.188;17.134;2022-08-25T02:57:00;21.90;99.90
12408;DHT22;6268;48.188;17.134;2022-08-25T02:59:30;21.90;99.90
12408;DHT22;6268;48.188;17.134;2022-08-25T03:01:59;21.90;99.90
12408;DHT22;6268;48.188;17.134;2022-08-25T03:04:27;21.90;99.90
12408;DHT22;6268;48.188;17.134;2022-08-25T03:06:58;21.90;99.90
12408;DHT22;6268;48.188;17.134;2022-08-25T03:09:26;21.90;99.90
12408;DHT22;6268;48.188;17.134;2022-08-25T03:12:00;21.70;99.90
12408;DHT22;6268;48.188;17.134;2022-08-25T03:14:30;21.80;99.90
12408;DHT22;6268;48.188;17.134;2022-08-25T03:16:59;21.70;99.90
12408;DHT22;6268;48.188;17.134;2022-08-25T03:19:28;21.70;99.90
12408;DHT22;6268;48.188;17.134;2022-08-25T03:21:57;21.70;99.90
12408;DHT22;6268;48.188;17.134;2022-08-25T03:24:26;21.70;99.90
12408;DHT22;6268;48.188;17.134;2022-08-25T03:26:55;21.70;99.90
12408;DHT22;6268;48.188;17.134;2022-08-25T03:29:25;21.70;99.90
12408;DHT22;6268;48.188;17.134;2022-08-25T03:31:56;21.70;99.90
12408;DHT22;6268;48.188;17.134;2022-08-25T03:34:28;21.70;99.90
12408;DHT22;6268;48.188;17.134;2022-08-25T03:36:57;21.70;99.90
12408;DHT22;6268;48.188;17.134;2022-08-25T03:39:26;21.60;99.90
12408;DHT22;6268;48.188;17.134;2022-08-25T03:41:55;21.60;99.90
12408;DHT22;6268;48.188;17.134;2022-08-25T03:44:24;21.60;99.90
12408;DHT22;6268;48.188;17.134;2022-08-25T03:46:52;21.60;99.90
12408;DHT22;6268;48.188;17.134;2022-08-25T03:49:23;21.50;99.90
12408;DHT22;6268;48.188;17.134;2022-08-25T03:51:52;21.50;99.90
12408;DHT22;6268;48.188;17.134;2022-08-25T03:54:23;21.50;99.90
12408;DHT22;6268;48.188;17.134;2022-08-25T03:56:53;21.50;99.90
12408;DHT22;6268;48.188;17.134;2022-08-25T03:59:22;21.50;99.90
12408;DHT22;6268;48.188;17.134;2022-08-25T04:01:52;21.50;99.90
12408;DHT22;6268;48.188;17.134;2022-08-25T04:04:23;21.50;99.90
12408;DHT22;6268;48.188;17.134;2022-08-25T04:06:51;21.50;99.90
12408;DHT22;6268;48.188;17.134;2022-08-25T04:09:20;21.50;99.90
12408;DHT22;6268;48.188;17.134;2022-08-25T04:11:49;21.50;99.90
12408;DHT22;6268;48.188;17.134;2022-08-25T04:14:19;21.60;99.90
12408;DHT22;6268;48.188;17.134;2022-08-25T04:16:50;21.50;99.90
12408;DHT22;6268;48.188;17.134;2022-08-25T04:19:20;21.60;99.90
12408;DHT22;6268;48.188;17.134;2022-08-25T04:21:51;21.60;99.90
12408;DHT22;6268;48.188;17.134;2022-08-25T04:24:22;21.60;99.90
12408;DHT22;6268;48.188;17.134;2022-08-25T04:26:51;21.60;99.90
12408;DHT22;6268;48.188;17.134;2022-08-25T04:29:22;21.60;99.90
12408;DHT22;6268;48.188;17.134;2022-08-25T04:31:52;21.60;99.90
12408;DHT22;6268;48.188;17.134;2022-08-25T04:34:25;21.60;99.90
12408;DHT22;6268;48.188;17.134;2022-08-25T04:36:59;21.60;99.90
12408;DHT22;6268;48.188;17.134;2022-08-25T04:39:29;21.60;99.90
12408;DHT22;6268;48.188;17.134;2022-08-25T04:41:58;21.70;99.90
12408;DHT22;6268;48.188;17.134;2022-08-25T04:44:28;21.70;99.90
12408;DHT22;6268;48.188;17.134;2022-08-25T04:46:58;21.70;99.90
12408;DHT22;6268;48.188;17.134;2022-08-25T04:49:28;21.70;99.90
12408;DHT22;6268;48.188;17.134;2022-08-25T04:51:59;21.80;99.90
12408;DHT22;6268;48.188;17.134;2022-08-25T04:54:27;22.10;99.90
12408;DHT22;6268;48.188;17.134;2022-08-25T04:57:03;22.40;99.90
12408;DHT22;6268;48.188;17.134;2022-08-25T04:59:32;22.90;99.90
12408;DHT22;6268;48.188;17.134;2022-08-25T05:02:01;23.30;99.90
12408;DHT22;6268;48.188;17.134;2022-08-25T05:04:33;23.70;99.90
12408;DHT22;6268;48.188;17.134;2022-08-25T05:07:05;24.10;99.90
12408;DHT22;6268;48.188;17.134;2022-08-25T05:09:33;24.50;99.90
12408;DHT22;6268;48.188;17.134;2022-08-25T05:12:04;24.90;99.90
12408;DHT22;6268;48.188;17.134;2022-08-25T05:14:33;25.30;99.90
12408;DHT22;6268;48.188;17.134;2022-08-25T05:17:02;25.70;99.90
12408;DHT22;6268;48.188;17.134;2022-08-25T05:19:30;26.10;99.90
12408;DHT22;6268;48.188;17.134;2022-08-25T05:21:59;26.40;99.90
12408;DHT22;6268;48.188;17.134;2022-08-25T05:24:29;26.80;99.90
12408;DHT22;6268;48.188;17.134;2022-08-25T05:26:58;27.10;99.90
12408;DHT22;6268;48.188;17.134;2022-08-25T05:29:27;27.40;99.90
12408;DHT22;6268;48.188;17.134;2022-08-25T05:31:56;27.70;99.90
12408;DHT22;6268;48.188;17.134;2022-08-25T05:34:24;28.00;99.90
12408;DHT22;6268;48.188;17.134;2022-08-25T05:36:53;28.10;99.90
12408;DHT22;6268;48.188;17.134;2022-08-25T05:39:26;28.00;99.90
12408;DHT22;6268;48.188;17.134;2022-08-25T05:41:59;28.20;99.90
12408;DHT22;6268;48.188;17.134;2022-08-25T05:44:28;28.20;99.90
12408;DHT22;6268;48.188;17.134;2022-08-25T05:46:57;28.50;99.90
12408;DHT22;6268;48.188;17.134;2022-08-25T05:49:26;28.70;99.90
12408;DHT22;6268;48.188;17.134;2022-08-25T05:51:54;28.90;99.90
12408;DHT22;6268;48.188;17.134;2022-08-25T05:54:23;29.20;99.90
12408;DHT22;6268;48.188;17.134;2022-08-25T05:56:52;29.40;99.90
12408;DHT22;6268;48.188;17.134;2022-08-25T05:59:23;29.70;99.90
12408;DHT22;6268;48.188;17.134;2022-08-25T06:01:52;29.80;99.90
12408;DHT22;6268;48.188;17.134;2022-08-25T06:04:38;29.90;99.90
12408;DHT22;6268;48.188;17.134;2022-08-25T06:07:07;29.90;99.90
12408;DHT22;6268;48.188;17.134;2022-08-25T06:09:37;29.60;99.90
12408;DHT22;6268;48.188;17.134;2022-08-25T06:12:07;29.50;99.90
12408;DHT22;6268;48.188;17.134;2022-08-25T06:14:37;29.40;99.90
12408;DHT22;6268;48.188;17.134;2022-08-25T06:17:06;29.60;99.90
12408;DHT22;6268;48.188;17.134;2022-08-25T06:19:35;30.10;99.90
12408;DHT22;6268;48.188;17.134;2022-08-25T06:22:07;30.40;99.90
12408;DHT22;6268;48.188;17.134;2022-08-25T06:24:35;30.50;99.90
12408;DHT22;6268;48.188;17.134;2022-08-25T06:27:04;30.30;99.90
12408;DHT22;6268;48.188;17.134;2022-08-25T06:29:33;30.30;99.90
12408;DHT22;6268;48.188;17.134;2022-08-25T06:32:05;30.50;99.90
12408;DHT22;6268;48.188;17.134;2022-08-25T06:34:34;30.80;99.90
12408;DHT22;6268;48.188;17.134;2022-08-25T06:37:03;30.70;99.90
12408;DHT22;6268;48.188;17.134;2022-08-25T06:39:32;30.50;99.90
12408;DHT22;6268;48.188;17.134;2022-08-25T06:42:00;30.70;99.90
12408;DHT22;6268;48.188;17.134;2022-08-25T06:44:29;31.30;99.90
12408;DHT22;6268;48.188;17.134;2022-08-25T06:46:58;31.80;99.90
12408;DHT22;6268;48.188;17.134;2022-08-25T06:49:28;32.10;99.90
12408;DHT22;6268;48.188;17.134;2022-08-25T06:52:02;32.50;99.90
12408;DHT22;6268;48.188;17.134;2022-08-25T06:54:31;32.40;99.90
12408;DHT22;6268;48.188;17.134;2022-08-25T06:57:00;32.70;99.90
12408;DHT22;6268;48.188;17.134;2022-08-25T06:59:29;32.70;99.90
12408;DHT22;6268;48.188;17.134;2022-08-25T07:02:01;32.80;99.90
12408;DHT22;6268;48.188;17.134;2022-08-25T07:04:33;33.00;99.20
12408;DHT22;6268;48.188;17.134;2022-08-25T07:07:03;33.00;99.90
12408;DHT22;6268;48.188;17.134;2022-08-25T07:09:33;33.60;99.20
12408;DHT22;6268;48.188;17.134;2022-08-25T07:12:06;34.20;96.90
12408;DHT22;6268;48.188;17.134;2022-08-25T07:14:36;34.60;94.80
12408;DHT22;6268;48.188;17.134;2022-08-25T07:17:05;34.80;91.60
12408;DHT22;6268;48.188;17.134;2022-08-25T07:19:39;34.30;92.30
12408;DHT22;6268;48.188;17.134;2022-08-25T07:22:08;34.00;94.00
12408;DHT22;6268;48.188;17.134;2022-08-25T07:24:37;34.20;93.30
12408;DHT22;6268;48.188;17.134;2022-08-25T07:27:06;34.40;92.80
12408;DHT22;6268;48.188;17.134;2022-08-25T07:29:34;34.60;91.70
12408;DHT22;6268;48.188;17.134;2022-08-25T07:32:08;34.90;91.10
12408;DHT22;6268;48.188;17.134;2022-08-25T07:34:38;35.40;90.70
12408;DHT22;6268;48.188;17.134;2022-08-25T07:37:24;35.60;85.80
12408;DHT22;6268;48.188;17.134;2022-08-25T07:40:15;35.70;85.20
12408;DHT22;6268;48.188;17.134;2022-08-25T07:42:47;36.00;84.30
12408;DHT22;6268;48.188;17.134;2022-08-25T07:45:16;36.30;82.10
12408;DHT22;6268;48.188;17.134;2022-08-25T07:48:07;36.40;81.10
12408;DHT22;6268;48.188;17.134;2022-08-25T07:50:42;36.40;80.60
12408;DHT22;6268;48.188;17.134;2022-08-25T07:53:14;36.60;79.10
12408;DHT22;6268;48.188;17.134;2022-08-25T07:55:43;36.30;77.10
12408;DHT22;6268;48.188;17.134;2022-08-25T07:58:13;35.70;81.20
12408;DHT22;6268;48.188;17.134;2022-08-25T08:00:46;35.50;81.40
12408;DHT22;6268;48.188;17.134;2022-08-25T08:03:16;35.40;81.10
12408;DHT22;6268;48.188;17.134;2022-08-25T08:06:09;35.20;83.40
12408;DHT22;6268;48.188;17.134;2022-08-25T08:08:40;35.30;84.20
12408;DHT22;6268;48.188;17.134;2022-08-25T08:11:14;35.70;83.90
12408;DHT22;6268;48.188;17.134;2022-08-25T08:13:45;36.20;79.30
12408;DHT22;6268;48.188;17.134;2022-08-25T08:16:20;36.30;76.60
12408;DHT22;6268;48.188;17.134;2022-08-25T08:18:50;36.50;75.40
12408;DHT22;6268;48.188;17.134;2022-08-25T08:21:23;36.50;74.90
12408;DHT22;6268;48.188;17.134;2022-08-25T08:23:54;36.40;74.70
12408;DHT22;6268;48.188;17.134;2022-08-25T08:26:25;36.50;74.80
12408;DHT22;6268;48.188;17.134;2022-08-25T08:29:15;36.60;74.20
12408;DHT22;6268;48.188;17.134;2022-08-25T08:31:48;37.00;73.10
12408;DHT22;6268;48.188;17.134;2022-08-25T08:34:17;37.10;73.00
12408;DHT22;6268;48.188;17.134;2022-08-25T08:36:52;37.60;71.50
12408;DHT22;6268;48.188;17.134;2022-08-25T08:39:20;38.10;69.10
12408;DHT22;6268;48.188;17.134;2022-08-25T08:42:00;38.50;68.10
12408;DHT22;6268;48.188;17.134;2022-08-25T08:45:03;38.80;66.60
12408;DHT22;6268;48.188;17.134;2022-08-25T08:47:48;38.90;65.70
12408;DHT22;6268;48.188;17.134;2022-08-25T08:50:28;38.50;65.40
12408;DHT22;6268;48.188;17.134;2022-08-25T08:53:06;38.00;65.80
12408;DHT22;6268;48.188;17.134;2022-08-25T08:55:42;37.30;66.50
12408;DHT22;6268;48.188;17.134;2022-08-25T08:58:21;37.30;68.00
12408;DHT22;6268;48.188;17.134;2022-08-25T09:00:55;37.60;66.30
12408;DHT22;6268;48.188;17.134;2022-08-25T09:03:32;37.70;65.50
12408;DHT22;6268;48.188;17.134;2022-08-25T09:06:09;37.80;64.60
12408;DHT22;6268;48.188;17.134;2022-08-25T09:08:42;37.20;66.10
12408;DHT22;6268;48.188;17.134;2022-08-25T09:11:21;37.00;66.30
12408;DHT22;6268;48.188;17.134;2022-08-25T09:14:13;37.30;66.70
12408;DHT22;6268;48.188;17.134;2022-08-25T09:17:01;37.00;65.50
12408;DHT22;6268;48.188;17.134;2022-08-25T09:19:56;36.80;66.10
12408;DHT22;6268;48.188;17.134;2022-08-25T09:22:52;36.70;65.50
12408;DHT22;6268;48.188;17.134;2022-08-25T09:25:35;36.60;66.60
12408;DHT22;6268;48.188;17.134;2022-08-25T09:28:23;37.30;65.20
12408;DHT22;6268;48.188;17.134;2022-08-25T09:31:00;37.80;63.10
12408;DHT22;6268;48.188;17.134;2022-08-25T09:33:32;38.10;62.00
12408;DHT22;6268;48.188;17.134;2022-08-25T09:36:02;37.70;60.50
12408;DHT22;6268;48.188;17.134;2022-08-25T09:38:34;37.10;62.20
12408;DHT22;6268;48.188;17.134;2022-08-25T09:41:06;36.60;63.60
12408;DHT22;6268;48.188;17.134;2022-08-25T09:43:40;36.60;64.00
12408;DHT22;6268;48.188;17.134;2022-08-25T09:46:12;35.70;66.20
12408;DHT22;6268;48.188;17.134;2022-08-25T09:48:49;35.20;69.00
12408;DHT22;6268;48.188;17.134;2022-08-25T09:51:26;35.10;68.20
12408;DHT22;6268;48.188;17.134;2022-08-25T09:54:18;35.00;68.90
12408;DHT22;6268;48.188;17.134;2022-08-25T09:57:05;35.20;69.30
12408;DHT22;6268;48.188;17.134;2022-08-25T09:59:36;35.50;69.20
12408;DHT22;6268;48.188;17.134;2022-08-25T10:02:21;35.70;69.30
12408;DHT22;6268;48.188;17.134;2022-08-25T10:04:53;35.50;69.00
12408;DHT22;6268;48.188;17.134;2022-08-25T10:07:26;35.20;68.80
12408;DHT22;6268;48.188;17.134;2022-08-25T10:09:59;35.20;69.90
12408;DHT22;6268;48.188;17.134;2022-08-25T10:12:41;35.50;69.90
12408;DHT22;6268;48.188;17.134;2022-08-25T10:15:20;35.60;67.40
12408;DHT22;6268;48.188;17.134;2022-08-25T10:18:19;35.20;68.30
12408;DHT22;6268;48.188;17.134;2022-08-25T10:21:08;34.80;69.00
12408;DHT22;6268;48.188;17.134;2022-08-25T10:23:41;34.90;69.00
12408;DHT22;6268;48.188;17.134;2022-08-25T10:26:33;34.70;69.00
12408;DHT22;6268;48.188;17.134;2022-08-25T10:29:29;34.50;69.90
12408;DHT22;6268;48.188;17.134;2022-08-25T10:32:15;34.50;70.00
12408;DHT22;6268;48.188;17.134;2022-08-25T10:34:53;34.30;70.70
12408;DHT22;6268;48.188;17.134;2022-08-25T10:37:30;33.60;72.80
12408;DHT22;6268;48.188;17.134;2022-08-25T10:40:12;33.10;75.70
12408;DHT22;6268;48.188;17.134;2022-08-25T10:42:59;33.00;77.50
12408;DHT22;6268;48.188;17.134;2022-08-25T10:45:40;33.40;77.20
12408;DHT22;6268;48.188;17.134;2022-08-25T10:48:36;33.80;75.10
12408;DHT22;6268;48.188;17.134;2022-08-25T10:51:31;34.30;74.30
12408;DHT22;6268;48.188;17.134;2022-08-25T10:54:14;34.70;72.60
12408;DHT22;6268;48.188;17.134;2022-08-25T10:57:02;35.10;71.10
12408;DHT22;6268;48.188;17.134;2022-08-25T10:59:59;35.30;70.30
12408;DHT22;6268;48.188;17.134;2022-08-25T11:03:12;35.10;70.30
12408;DHT22;6268;48.188;17.134;2022-08-25T11:05:54;34.90;70.40
12408;DHT22;6268;48.188;17.134;2022-08-25T11:08:32;34.20;70.60
12408;DHT22;6268;48.188;17.134;2022-08-25T11:11:09;33.50;73.50
12408;DHT22;6268;48.188;17.134;2022-08-25T11:13:50;33.30;75.20
12408;DHT22;6268;48.188;17.134;2022-08-25T11:16:32;33.20;74.90
12408;DHT22;6268;48.188;17.134;2022-08-25T11:19:13;33.50;75.50
12408;DHT22;6268;48.188;17.134;2022-08-25T11:21:51;33.70;73.40
12408;DHT22;6268;48.188;17.134;2022-08-25T11:24:39;33.80;72.60
12408;DHT22;6268;48.188;17.134;2022-08-25T11:27:19;33.10;74.70
12408;DHT22;6268;48.188;17.134;2022-08-25T11:29:57;33.00;75.80
12408;DHT22;6268;48.188;17.134;2022-08-25T11:32:33;33.20;74.50
12408;DHT22;6268;48.188;17.134;2022-08-25T11:35:06;32.50;74.40
12408;DHT22;6268;48.188;17.134;2022-08-25T11:37:46;32.40;76.80
12408;DHT22;6268;48.188;17.134;2022-08-25T11:40:34;31.90;80.00
12408;DHT22;6268;48.188;17.134;2022-08-25T11:43:28;32.30;80.50
12408;DHT22;6268;48.188;17.134;2022-08-25T11:46:24;32.50;79.00
12408;DHT22;6268;48.188;17.134;2022-08-25T11:49:22;32.80;77.00
12408;DHT22;6268;48.188;17.134;2022-08-25T11:52:05;32.90;77.80
12408;DHT22;6268;48.188;17.134;2022-08-25T11:54:42;32.60;78.30
12408;DHT22;6268;48.188;17.134;2022-08-25T11:57:18;32.40;79.10
12408;DHT22;6268;48.188;17.134;2022-08-25T12:00:04;32.50;79.70
12408;DHT22;6268;48.188;17.134;2022-08-25T12:02:39;32.50;80.00
12408;DHT22;6268;48.188;17.134;2022-08-25T12:08:14;32.60;78.50
12408;DHT22;6268;48.188;17.134;2022-08-25T12:11:46;32.40;79.30
12408;DHT22;6268;48.188;17.134;2022-08-25T12:14:42;32.40;79.00
12408;DHT22;6268;48.188;17.134;2022-08-25T12:17:19;32.50;79.00
12408;DHT22;6268;48.188;17.134;2022-08-25T12:19:54;32.50;79.60
12408;DHT22;6268;48.188;17.134;2022-08-25T12:22:55;32.40;79.70
12408;DHT22;6268;48.188;17.134;2022-08-25T12:25:37;32.10;80.10
12408;DHT22;6268;48.188;17.134;2022-08-25T12:28:39;32.10;81.30
12408;DHT22;6268;48.188;17.134;2022-08-25T12:38:02;32.10;79.70
12408;DHT22;6268;48.188;17.134;2022-08-25T12:40:51;32.10;81.30
12408;DHT22;6268;48.188;17.134;2022-08-25T12:43:27;32.20;80.70
12408;DHT22;6268;48.188;17.134;2022-08-25T12:46:34;32.20;79.90
12408;DHT22;6268;48.188;17.134;2022-08-25T12:49:14;32.20;78.70
12408;DHT22;6268;48.188;17.134;2022-08-25T12:52:03;31.90;80.20
12408;DHT22;6268;48.188;17.134;2022-08-25T12:54:44;31.80;81.90
12408;DHT22;6268;48.188;17.134;2022-08-25T12:57:38;31.40;83.90
12408;DHT22;6268;48.188;17.134;2022-08-25T13:00:16;31.20;83.80
12408;DHT22;6268;48.188;17.134;2022-08-25T13:03:03;31.10;85.50
12408;DHT22;6268;48.188;17.134;2022-08-25T13:06:13;31.10;86.40
12408;DHT22;6268;48.188;17.134;2022-08-25T13:12:15;31.10;86.70
12408;DHT22;6268;48.188;17.134;2022-08-25T13:14:53;31.30;86.10
12408;DHT22;6268;48.188;17.134;2022-08-25T13:17:28;31.50;84.90
12408;DHT22;6268;48.188;17.134;2022-08-25T13:20:19;31.60;84.40
12408;DHT22;6268;48.188;17.134;2022-08-25T13:22:56;31.70;85.00
12408;DHT22;6268;48.188;17.134;2022-08-25T13:25:30;31.80;82.30
12408;DHT22;6268;48.188;17.134;2022-08-25T13:28:04;31.60;80.60
12408;DHT22;6268;48.188;17.134;2022-08-25T13:30:38;31.40;81.90
12408;DHT22;6268;48.188;17.134;2022-08-25T13:33:18;31.40;82.90
12408;DHT22;6268;48.188;17.134;2022-08-25T13:35:49;31.40;82.60
12408;DHT22;6268;48.188;17.134;2022-08-25T13:38:41;31.10;83.70
12408;DHT22;6268;48.188;17.134;2022-08-25T13:41:18;31.20;83.90
12408;DHT22;6268;48.188;17.134;2022-08-25T13:43:56;31.00;84.00
12408;DHT22;6268;48.188;17.134;2022-08-25T13:46:30;30.90;84.50
12408;DHT22;6268;48.188;17.134;2022-08-25T13:49:03;30.80;84.30
12408;DHT22;6268;48.188;17.134;2022-08-25T13:51:35;30.80;84.50
12408;DHT22;6268;48.188;17.134;2022-08-25T13:54:08;30.80;85.30
12408;DHT22;6268;48.188;17.134;2022-08-25T13:56:50;30.90;86.70
12408;DHT22;6268;48.188;17.134;2022-08-25T13:59:23;30.90;83.80
12408;DHT22;6268;48.188;17.134;2022-08-25T14:01:55;31.00;83.30
12408;DHT22;6268;48.188;17.134;2022-08-25T14:04:29;31.10;82.40
12408;DHT22;6268;48.188;17.134;2022-08-25T14:07:12;31.10;80.90
12408;DHT22;6268;48.188;17.134;2022-08-25T14:09:54;31.20;80.90
12408;DHT22;6268;48.188;17.134;2022-08-25T14:12:32;31.20;80.00
12408;DHT22;6268;48.188;17.134;2022-08-25T14:15:09;31.10;79.80
12408;DHT22;6268;48.188;17.134;2022-08-25T14:18:02;31.10;81.20
12408;DHT22;6268;48.188;17.134;2022-08-25T14:20:34;31.20;80.00
12408;DHT22;6268;48.188;17.134;2022-08-25T14:23:14;31.30;78.10
12408;DHT22;6268;48.188;17.134;2022-08-25T14:25:45;31.20;78.00
12408;DHT22;6268;48.188;17.134;2022-08-25T14:28:18;31.20;78.70
12408;DHT22;6268;48.188;17.134;2022-08-25T14:30:51;31.10;79.40
12408;DHT22;6268;48.188;17.134;2022-08-25T14:33:27;31.10;77.90
12408;DHT22;6268;48.188;17.134;2022-08-25T14:36:00;31.10;78.50
12408;DHT22;6268;48.188;17.134;2022-08-25T14:38:31;30.90;78.00
12408;DHT22;6268;48.188;17.134;2022-08-25T14:41:04;30.90;78.80
12408;DHT22;6268;48.188;17.134;2022-08-25T14:43:33;30.80;79.30
12408;DHT22;6268;48.188;17.134;2022-08-25T14:46:09;30.90;79.90
12408;DHT22;6268;48.188;17.134;2022-08-25T14:48:49;30.90;80.30
12408;DHT22;6268;48.188;17.134;2022-08-25T14:51:22;30.90;80.00
12408;DHT22;6268;48.188;17.134;2022-08-25T14:53:55;30.90;80.40
12408;DHT22;6268;48.188;17.134;2022-08-25T14:56:31;30.90;81.30
12408;DHT22;6268;48.188;17.134;2022-08-25T14:59:02;30.90;82.90
12408;DHT22;6268;48.188;17.134;2022-08-25T15:01:31;30.90;82.10
12408;DHT22;6268;48.188;17.134;2022-08-25T15:04:05;30.90;83.00
12408;DHT22;6268;48.188;17.134;2022-08-25T15:06:38;30.90;80.10
12408;DHT22;6268;48.188;17.134;2022-08-25T15:09:12;30.80;80.00
12408;DHT22;6268;48.188;17.134;2022-08-25T15:11:45;30.80;80.00
12408;DHT22;6268;48.188;17.134;2022-08-25T15:14:18;30.70;79.40
12408;DHT22;6268;48.188;17.134;2022-08-25T15:16:59;30.70;78.80
12408;DHT22;6268;48.188;17.134;2022-08-25T15:19:30;30.60;78.60
12408;DHT22;6268;48.188;17.134;2022-08-25T15:22:00;30.50;77.60
12408;DHT22;6268;48.188;17.134;2022-08-25T15:24:28;30.50;77.70
12408;DHT22;6268;48.188;17.134;2022-08-25T15:27:04;30.50;77.50
12408;DHT22;6268;48.188;17.134;2022-08-25T15:29:36;30.50;76.40
12408;DHT22;6268;48.188;17.134;2022-08-25T15:32:07;30.50;76.00
12408;DHT22;6268;48.188;17.134;2022-08-25T15:34:37;30.50;76.90
12408;DHT22;6268;48.188;17.134;2022-08-25T15:37:08;30.50;78.50
12408;DHT22;6268;48.188;17.134;2022-08-25T15:39:40;30.50;76.90
12408;DHT22;6268;48.188;17.134;2022-08-25T15:42:11;30.50;77.10
12408;DHT22;6268;48.188;17.134;2022-08-25T15:44:40;30.50;77.10
12408;DHT22;6268;48.188;17.134;2022-08-25T15:47:19;30.50;77.10
12408;DHT22;6268;48.188;17.134;2022-08-25T15:49:50;30.50;78.10
12408;DHT22;6268;48.188;17.134;2022-08-25T15:52:29;30.50;81.50
12408;DHT22;6268;48.188;17.134;2022-08-25T15:55:12;30.50;79.60
12408;DHT22;6268;48.188;17.134;2022-08-25T15:57:42;30.50;79.00
12408;DHT22;6268;48.188;17.134;2022-08-25T16:00:11;30.50;81.60
12408;DHT22;6268;48.188;17.134;2022-08-25T16:02:43;30.50;86.70
12408;DHT22;6268;48.188;17.134;2022-08-25T16:05:14;30.40;87.50
12408;DHT22;6268;48.188;17.134;2022-08-25T16:07:43;30.40;90.00
12408;DHT22;6268;48.188;17.134;2022-08-25T16:10:18;30.40;90.50
12408;DHT22;6268;48.188;17.134;2022-08-25T16:12:47;30.40;90.90
12408;DHT22;6268;48.188;17.134;2022-08-25T16:15:16;30.40;91.40
12408;DHT22;6268;48.188;17.134;2022-08-25T16:17:54;30.30;91.70
12408;DHT22;6268;48.188;17.134;2022-08-25T16:20:27;30.30;92.30
12408;DHT22;6268;48.188;17.134;2022-08-25T16:22:56;30.20;93.40
12408;DHT22;6268;48.188;17.134;2022-08-25T16:25:30;30.20;93.90
12408;DHT22;6268;48.188;17.134;2022-08-25T16:28:02;30.20;94.50
12408;DHT22;6268;48.188;17.134;2022-08-25T16:30:31;30.20;96.60